Terminal Aerodrome Forecast
Issued by NWS Pocatello, ID

Home | Current Version | Previous Version | Text Only | Print | Product List | Glossary On
Versions: 1 2 3 4 5 6 7 8 9 10 11 12
000
FTUS45 KPIH 242300
TAFPIH
TAF
KPIH 242322Z 2500/2524 18010G20KT P6SM SKC
     FM250100 17015KT P6SM SKC
     FM251700 18012G22KT P6SM SCT100 BKN200=

USA.gov is the U.S. government's official web portal to all federal, state and local government web resources and services.